Time;durP1;ratioP1;P1;durP2;ratioP2;P2;SDS_P1;SDS_P2;PMS_P1;PMS_P2;Temp;Humidity;BMP_temperature;BMP_pressure;BME280_temperature;BME280_humidity;BME280_pressure;Samples;Min_cycle;Max_cycle;Signal;HPM_P1;HPM_P2
2021/03/18 00:00:14;;;;;;;19.17;10.00;;;4.80;99.90;;;;;;5073113;28;20529;-53
2021/03/18 00:02:40;;;;;;;15.87;10.87;;;4.80;99.90;;;;;;5082230;28;20175;-55
2021/03/18 00:05:07;;;;;;;14.00;10.30;;;4.80;99.90;;;;;;5071642;28;20918;-54
2021/03/18 00:07:34;;;;;;;15.17;10.27;;;4.90;99.90;;;;;;5081467;28;20217;-56
2021/03/18 00:10:00;;;;;;;15.30;9.20;;;5.00;99.90;;;;;;5079186;28;20447;-54
2021/03/18 00:12:27;;;;;;;13.37;9.33;;;5.10;99.90;;;;;;5078292;28;20461;-55
2021/03/18 00:14:52;;;;;;;13.33;8.80;;;5.00;99.90;;;;;;5071052;28;20487;-55
2021/03/18 00:17:19;;;;;;;10.70;8.13;;;5.00;99.90;;;;;;5072813;28;20469;-54
2021/03/18 00:19:44;;;;;;;12.33;7.83;;;5.10;99.90;;;;;;5082792;28;20174;-54
2021/03/18 00:22:10;;;;;;;12.20;8.37;;;5.00;99.90;;;;;;5078583;28;20541;-54
2021/03/18 00:24:35;;;;;;;11.03;8.20;;;5.00;99.90;;;;;;5086409;28;20241;-54
2021/03/18 00:27:02;;;;;;;12.70;9.07;;;5.00;99.90;;;;;;5084935;28;20296;-54
2021/03/18 00:29:28;;;;;;;10.70;7.83;;;4.90;99.90;;;;;;5084638;28;20208;-53
2021/03/18 00:31:53;;;;;;;13.20;8.73;;;4.90;99.90;;;;;;5071785;28;20465;-54
2021/03/18 00:34:19;;;;;;;12.00;8.10;;;4.90;99.90;;;;;;5063165;28;20206;-54
2021/03/18 00:36:44;;;;;;;10.53;7.77;;;4.80;99.90;;;;;;5058401;28;20201;-54
2021/03/18 00:39:11;;;;;;;12.70;9.20;;;4.80;99.90;;;;;;5074006;28;20189;-54
2021/03/18 00:41:37;;;;;;;14.30;10.23;;;4.70;99.90;;;;;;5083320;28;20176;-53
2021/03/18 00:44:04;;;;;;;15.67;9.20;;;4.70;99.90;;;;;;5083745;28;20443;-53
2021/03/18 00:46:30;;;;;;;14.27;8.50;;;4.70;99.90;;;;;;5083455;28;20444;-56
2021/03/18 00:48:55;;;;;;;12.13;9.20;;;4.70;99.90;;;;;;5077046;28;20435;-54
2021/03/18 00:51:22;;;;;;;13.80;9.30;;;4.80;99.90;;;;;;5078194;28;20234;-55
2021/03/18 00:53:49;;;;;;;13.23;10.90;;;4.80;99.90;;;;;;5092167;28;20213;-54
2021/03/18 00:56:17;;;;;;;15.33;10.63;;;4.90;99.90;;;;;;5074442;28;20446;-54
2021/03/18 00:58:44;;;;;;;14.60;9.20;;;4.70;99.90;;;;;;5082096;28;20943;-55
2021/03/18 01:01:11;;;;;;;13.43;8.80;;;4.50;99.90;;;;;;5082850;28;20455;-53
2021/03/18 01:03:40;;;;;;;12.53;8.50;;;4.50;99.90;;;;;;5085199;28;20748;-54
2021/03/18 01:06:16;;;;;;;14.10;10.77;;;4.60;99.90;;;;;;5079605;28;20480;-55
2021/03/18 01:08:42;;;;;;;12.30;9.40;;;4.60;99.90;;;;;;5079382;28;20962;-54
2021/03/18 01:11:16;;;;;;;13.47;10.40;;;4.70;99.90;;;;;;5076625;28;20748;-55
2021/03/18 01:13:45;;;;;;;14.23;9.73;;;4.70;99.90;;;;;;5085801;28;20455;-55
2021/03/18 01:16:23;;;;;;;14.87;9.77;;;4.60;99.90;;;;;;5074186;28;20439;-54
2021/03/18 01:18:53;;;;;;;15.17;10.17;;;4.60;99.90;;;;;;5084387;28;20438;-54
2021/03/18 01:21:22;;;;;;;13.97;10.47;;;4.60;99.90;;;;;;5078363;28;20991;-56
2021/03/18 01:23:48;;;;;;;13.53;10.47;;;4.60;99.90;;;;;;5088387;28;20464;-54
2021/03/18 01:26:14;;;;;;;17.33;10.33;;;4.50;99.90;;;;;;5073685;28;20475;-55
2021/03/18 01:28:40;;;;;;;15.70;9.83;;;4.50;99.90;;;;;;5083656;28;20206;-54
2021/03/18 01:31:08;;;;;;;12.37;10.13;;;4.50;99.90;;;;;;5068868;28;20478;-56
2021/03/18 01:33:34;;;;;;;13.90;11.10;;;4.40;99.90;;;;;;5072794;28;20485;-54
2021/03/18 01:36:01;;;;;;;13.93;10.70;;;4.40;99.90;;;;;;5077484;28;20448;-55
2021/03/18 01:38:28;;;;;;;18.17;9.90;;;4.40;99.90;;;;;;5081742;28;20450;-54
2021/03/18 01:40:55;;;;;;;15.33;10.70;;;4.40;99.90;;;;;;5089367;28;21123;-53
2021/03/18 01:43:23;;;;;;;16.10;10.37;;;4.50;99.90;;;;;;5082823;28;20490;-54
2021/03/18 01:45:48;;;;;;;12.50;9.33;;;4.60;99.90;;;;;;5077469;28;20918;-54
2021/03/18 01:48:14;;;;;;;14.90;10.20;;;4.50;99.90;;;;;;5080099;28;20544;-53
2021/03/18 01:50:40;;;;;;;13.13;9.73;;;4.40;99.90;;;;;;5071825;28;20238;-54
2021/03/18 01:53:07;;;;;;;13.83;10.90;;;4.60;99.90;;;;;;5088305;28;20207;-54
2021/03/18 01:55:44;;;;;;;10.90;9.10;;;4.60;99.90;;;;;;5085444;28;20928;-54
2021/03/18 01:58:11;;;;;;;13.23;9.83;;;4.40;99.90;;;;;;5075451;28;20445;-54
2021/03/18 02:00:39;;;;;;;12.90;9.23;;;4.30;99.90;;;;;;5082472;28;20916;-54
2021/03/18 02:03:05;;;;;;;14.50;9.53;;;4.40;99.90;;;;;;5069384;28;20946;-55
2021/03/18 02:05:31;;;;;;;15.93;9.60;;;4.40;99.90;;;;;;5070256;28;20448;-54
2021/03/18 02:07:58;;;;;;;10.80;8.77;;;4.30;99.90;;;;;;5079274;28;20541;-53
2021/03/18 02:10:31;;;;;;;14.13;10.00;;;4.30;99.90;;;;;;5071071;28;20955;-54
2021/03/18 02:12:58;;;;;;;11.63;9.63;;;4.30;99.90;;;;;;5086634;28;20461;-55
2021/03/18 02:15:30;;;;;;;11.47;8.97;;;4.40;99.90;;;;;;5086634;28;20525;-54
2021/03/18 02:18:12;;;;;;;13.00;9.83;;;4.40;99.90;;;;;;5075368;28;20518;-53
2021/03/18 02:21:15;;;;;;;12.83;8.77;;;4.40;99.90;;;;;;5068388;28;20969;-54
2021/03/18 02:23:43;;;;;;;12.07;9.30;;;4.40;99.90;;;;;;5063068;28;20476;-53
2021/03/18 02:26:33;;;;;;;10.97;9.23;;;4.30;99.90;;;;;;5076826;28;20448;-54
2021/03/18 02:29:17;;;;;;;15.17;10.70;;;4.30;99.90;;;;;;5074984;28;20981;-55
2021/03/18 02:32:02;;;;;;;11.57;9.33;;;4.30;99.90;;;;;;5075811;28;20998;-53
2021/03/18 02:34:27;;;;;;;15.63;10.63;;;;;;;;;;5066632;28;20831;-54
2021/03/18 02:37:07;;;;;;;14.73;10.90;;;4.30;99.90;;;;;;5058321;28;20459;-55
2021/03/18 02:40:08;;;;;;;13.53;10.23;;;4.30;99.90;;;;;;5081633;28;20914;-54
2021/03/18 02:42:36;;;;;;;13.13;10.57;;;4.30;99.90;;;;;;5073980;28;20448;-55
2021/03/18 02:45:04;;;;;;;13.97;10.50;;;4.30;99.90;;;;;;5071470;28;20448;-53
2021/03/18 02:47:34;;;;;;;16.00;10.63;;;4.30;99.90;;;;;;5082974;28;20502;-54
2021/03/18 02:50:01;;;;;;;12.93;10.30;;;4.40;99.90;;;;;;5083354;28;20444;-53
2021/03/18 02:52:29;;;;;;;15.90;9.70;;;4.40;99.90;;;;;;5072602;28;20479;-54
2021/03/18 02:54:57;;;;;;;13.70;9.90;;;4.50;99.90;;;;;;5089721;28;20449;-54
2021/03/18 02:57:25;;;;;;;13.70;9.87;;;4.50;99.90;;;;;;5083159;28;20543;-55
2021/03/18 02:59:53;;;;;;;14.37;11.20;;;4.40;99.90;;;;;;5067531;28;20526;-55
2021/03/18 03:02:22;;;;;;;14.90;9.97;;;4.40;99.90;;;;;;5083949;28;20796;-54
2021/03/18 03:04:49;;;;;;;14.77;11.20;;;4.40;99.90;;;;;;5065564;28;20467;-54
2021/03/18 03:07:17;;;;;;;13.60;10.40;;;4.30;99.90;;;;;;5076724;28;20456;-56
2021/03/18 03:09:45;;;;;;;16.00;10.50;;;4.60;99.90;;;;;;5079898;28;20441;-54
2021/03/18 03:12:13;;;;;;;12.63;9.47;;;4.50;99.90;;;;;;5076399;28;20974;-54
2021/03/18 03:14:40;;;;;;;14.50;10.53;;;4.50;99.90;;;;;;5072056;28;20915;-54
2021/03/18 03:17:06;;;;;;;14.00;10.30;;;4.60;99.90;;;;;;5081391;28;20432;-55
2021/03/18 03:19:37;;;;;;;14.30;11.30;;;4.50;99.90;;;;;;5086158;28;20472;-54
2021/03/18 03:22:04;;;;;;;17.57;11.73;;;4.40;99.90;;;;;;5084282;28;20445;-55
2021/03/18 03:24:33;;;;;;;14.10;11.53;;;4.60;99.90;;;;;;5086902;28;20566;-54
2021/03/18 03:26:59;;;;;;;14.20;10.80;;;4.60;99.90;;;;;;5082949;28;20806;-54
2021/03/18 03:29:25;;;;;;;15.17;10.87;;;4.40;99.90;;;;;;5079008;28;20444;-54
2021/03/18 03:31:51;;;;;;;18.07;12.00;;;4.30;99.90;;;;;;5089964;28;20467;-54
2021/03/18 03:34:17;;;;;;;13.97;10.00;;;4.30;99.90;;;;;;5075661;28;20449;-53
2021/03/18 03:36:45;;;;;;;12.27;10.00;;;4.30;99.90;;;;;;5071441;28;21053;-53
2021/03/18 03:39:11;;;;;;;18.10;12.03;;;4.30;99.90;;;;;;5080743;28;20641;-55
2021/03/18 03:41:36;;;;;;;17.03;12.07;;;4.20;99.90;;;;;;5075560;28;20443;-54
2021/03/18 03:44:04;;;;;;;14.40;11.30;;;4.20;99.90;;;;;;5078573;28;20266;-55
2021/03/18 03:46:30;;;;;;;14.63;11.23;;;4.40;99.90;;;;;;5089564;28;20182;-53
2021/03/18 03:48:55;;;;;;;15.53;11.50;;;4.40;99.90;;;;;;5091409;28;20431;-54
2021/03/18 03:51:21;;;;;;;15.57;10.97;;;4.00;99.90;;;;;;5062509;28;20287;-54
2021/03/18 03:53:51;;;;;;;15.43;11.37;;;4.40;99.90;;;;;;5082483;28;20226;-54
2021/03/18 03:56:24;;;;;;;15.63;10.73;;;4.20;99.90;;;;;;5079356;28;20787;-55
2021/03/18 03:58:58;;;;;;;12.87;10.33;;;4.20;99.90;;;;;;5085385;28;20440;-54
2021/03/18 04:01:41;;;;;;;16.00;10.97;;;4.20;99.90;;;;;;5084078;28;20438;-55
2021/03/18 04:04:20;;;;;;;14.60;12.10;;;4.20;99.90;;;;;;5071882;28;20479;-54
2021/03/18 04:06:48;;;;;;;13.13;10.27;;;4.20;99.90;;;;;;5068910;28;20952;-54
2021/03/18 04:09:17;;;;;;;14.23;10.33;;;4.10;99.90;;;;;;5072352;28;20503;-53
2021/03/18 04:11:43;;;;;;;15.00;11.80;;;4.20;99.90;;;;;;5072621;28;20465;-55
2021/03/18 04:14:11;;;;;;;14.67;12.50;;;4.20;99.90;;;;;;5079115;28;20525;-54
2021/03/18 04:16:39;;;;;;;12.43;10.10;;;4.20;99.90;;;;;;5080916;28;20497;-55
2021/03/18 04:19:06;;;;;;;15.63;11.67;;;4.30;99.90;;;;;;5081615;28;20826;-54
2021/03/18 04:21:36;;;;;;;13.70;10.93;;;4.30;99.90;;;;;;5076726;28;20438;-55
2021/03/18 04:24:04;;;;;;;15.17;11.80;;;4.30;99.90;;;;;;5045073;28;557822;-53
2021/03/18 04:26:33;;;;;;;17.83;13.40;;;4.20;99.90;;;;;;5079195;28;20194;-55
2021/03/18 04:29:01;;;;;;;17.13;13.07;;;4.20;99.90;;;;;;5086938;28;20448;-54
2021/03/18 04:31:27;;;;;;;16.87;12.57;;;4.30;99.90;;;;;;5079010;28;20523;-53
2021/03/18 04:33:53;;;;;;;16.33;12.13;;;;;;;;;;5076868;28;20591;-54
2021/03/18 04:36:19;;;;;;;15.07;12.40;;;4.30;99.90;;;;;;5056318;28;20611;-54
2021/03/18 04:38:45;;;;;;;15.97;12.50;;;4.30;99.90;;;;;;5081130;28;20474;-54
2021/03/18 04:41:11;;;;;;;16.23;12.10;;;4.30;99.90;;;;;;5078183;28;20655;-53
2021/03/18 04:43:38;;;;;;;15.57;11.00;;;4.30;99.90;;;;;;5067055;28;20532;-55
2021/03/18 04:46:06;;;;;;;14.00;11.10;;;4.30;99.90;;;;;;5060105;28;20706;-55
2021/03/18 04:48:33;;;;;;;13.30;9.90;;;4.20;99.90;;;;;;5069692;28;20978;-55
2021/03/18 04:50:58;;;;;;;17.53;12.80;;;4.40;99.90;;;;;;5080512;28;20425;-54
2021/03/18 04:53:24;;;;;;;11.67;10.30;;;4.40;99.90;;;;;;5070372;28;20466;-55
2021/03/18 04:55:50;;;;;;;16.23;11.63;;;4.50;99.90;;;;;;5073707;28;20170;-54
2021/03/18 04:58:19;;;;;;;17.07;11.37;;;4.40;99.90;;;;;;5072657;28;20229;-53
2021/03/18 05:00:46;;;;;;;15.37;11.90;;;4.30;99.90;;;;;;5074032;28;20452;-54
2021/03/18 05:03:12;;;;;;;14.80;11.93;;;4.10;99.90;;;;;;5083969;28;20531;-54
2021/03/18 05:05:38;;;;;;;18.80;12.60;;;4.00;99.90;;;;;;5083370;28;20498;-56
2021/03/18 05:08:05;;;;;;;16.13;11.83;;;3.90;99.90;;;;;;5072472;28;20436;-54
2021/03/18 05:10:34;;;;;;;15.17;12.43;;;3.80;99.90;;;;;;5070849;28;20191;-55
2021/03/18 05:13:04;;;;;;;15.90;12.10;;;4.10;99.90;;;;;;5073510;28;20466;-55
2021/03/18 05:15:31;;;;;;;16.20;11.60;;;4.10;99.90;;;;;;5078477;28;20539;-53
2021/03/18 05:17:57;;;;;;;15.30;11.23;;;4.20;99.90;;;;;;5071346;28;20536;-54
2021/03/18 05:20:24;;;;;;;15.30;11.40;;;4.20;99.90;;;;;;5065199;28;20543;-54
2021/03/18 05:22:51;;;;;;;15.83;12.10;;;4.30;99.90;;;;;;5079300;28;20192;-55
2021/03/18 05:25:26;;;;;;;14.00;11.30;;;4.30;99.90;;;;;;5078204;28;20504;-55
2021/03/18 05:27:52;;;;;;;16.53;11.67;;;4.40;99.90;;;;;;5069298;28;20453;-54
2021/03/18 05:30:18;;;;;;;16.80;11.90;;;4.40;99.90;;;;;;5073496;28;20450;-55
2021/03/18 05:32:44;;;;;;;17.87;13.63;;;4.40;99.90;;;;;;5078369;28;20198;-53
2021/03/18 05:35:12;;;;;;;19.70;12.97;;;4.30;99.90;;;;;;5074544;28;20928;-55
2021/03/18 05:37:38;;;;;;;19.33;12.10;;;4.20;99.90;;;;;;5076649;28;20905;-53
2021/03/18 05:40:06;;;;;;;19.50;14.13;;;4.20;99.90;;;;;;5068243;28;20448;-56
2021/03/18 05:42:33;;;;;;;19.57;14.30;;;4.30;99.90;;;;;;5069696;28;20918;-54
2021/03/18 05:44:59;;;;;;;22.13;13.77;;;4.20;99.90;;;;;;5080685;28;20444;-55
2021/03/18 05:47:26;;;;;;;21.40;14.80;;;4.20;99.90;;;;;;5074562;28;20451;-54
2021/03/18 05:49:51;;;;;;;21.60;14.80;;;4.20;99.90;;;;;;5070570;28;20452;-55
2021/03/18 05:52:19;;;;;;;19.33;14.23;;;4.20;99.90;;;;;;5081219;28;20469;-55
2021/03/18 05:54:49;;;;;;;19.80;12.63;;;4.20;99.90;;;;;;5080041;28;20552;-55
2021/03/18 05:57:15;;;;;;;18.60;13.53;;;4.20;99.90;;;;;;5072531;28;20452;-54
2021/03/18 05:59:45;;;;;;;19.77;13.90;;;4.40;99.90;;;;;;5071314;28;20510;-55
2021/03/18 06:02:12;;;;;;;19.40;13.57;;;4.50;99.90;;;;;;5077703;28;20459;-54
2021/03/18 06:04:38;;;;;;;18.27;13.93;;;4.30;99.90;;;;;;5085147;28;20926;-56
2021/03/18 06:07:04;;;;;;;16.00;11.30;;;4.30;99.90;;;;;;5068609;28;20481;-55
2021/03/18 06:09:29;;;;;;;17.20;12.57;;;4.30;99.90;;;;;;5071360;28;20222;-56
2021/03/18 06:11:56;;;;;;;18.00;12.13;;;4.00;99.90;;;;;;5087625;28;20283;-55
2021/03/18 06:14:22;;;;;;;17.70;12.53;;;;;;;;;;5075064;28;20206;-57
2021/03/18 06:16:53;;;;;;;15.30;10.90;;;3.90;99.90;;;;;;5076037;28;20451;-56
2021/03/18 06:19:19;;;;;;;14.43;10.60;;;;;;;;;;5079246;28;20480;-53
2021/03/18 06:21:48;;;;;;;12.40;10.10;;;3.80;99.00;;;;;;5075863;28;20534;-55
2021/03/18 06:24:14;;;;;;;18.30;11.50;;;3.80;99.90;;;;;;5070860;28;20485;-56
2021/03/18 06:26:40;;;;;;;12.87;9.13;;;4.00;99.90;;;;;;5086751;28;20444;-54
2021/03/18 06:29:27;;;;;;;12.97;9.43;;;3.90;87.50;;;;;;5081952;28;20439;-53
2021/03/18 06:31:54;;;;;;;14.47;10.37;;;3.90;85.10;;;;;;5076757;28;20195;-53
2021/03/18 06:34:55;;;;;;;12.60;9.63;;;3.90;85.10;;;;;;5082994;28;20452;-55
2021/03/18 06:37:29;;;;;;;14.17;10.20;;;3.80;96.50;;;;;;5065605;28;20494;-54
2021/03/18 06:39:58;;;;;;;15.10;10.83;;;4.00;94.70;;;;;;5077947;28;20452;-54
2021/03/18 06:42:24;;;;;;;15.77;11.20;;;4.00;93.80;;;;;;5072610;28;20461;-54
2021/03/18 06:45:03;;;;;;;17.80;11.17;;;4.00;90.60;;;;;;5073295;28;20452;-54
2021/03/18 06:47:51;;;;;;;14.03;10.50;;;4.10;92.10;;;;;;5067179;28;20264;-54
2021/03/18 06:50:20;;;;;;;16.70;10.93;;;4.30;84.60;;;;;;5079041;28;20775;-55
2021/03/18 06:52:46;;;;;;;15.90;11.00;;;4.60;43.90;;;;;;5071078;28;20564;-55
2021/03/18 06:55:25;;;;;;;16.53;10.73;;;4.70;29.70;;;;;;5080919;28;20523;-56
2021/03/18 06:58:13;;;;;;;18.00;11.13;;;4.80;30.30;;;;;;5090406;28;20198;-55
2021/03/18 07:00:39;;;;;;;17.13;12.40;;;4.90;18.40;;;;;;5070300;28;20448;-53
2021/03/18 07:03:08;;;;;;;14.40;10.73;;;5.10;1.00;;;;;;5064894;28;20526;-55
2021/03/18 07:05:38;;;;;;;14.33;10.40;;;5.10;1.00;;;;;;5072595;28;20445;-54
2021/03/18 07:08:04;;;;;;;15.90;11.30;;;5.10;1.00;;;;;;5078795;28;20437;-56
2021/03/18 07:10:36;;;;;;;16.60;11.40;;;5.00;1.00;;;;;;5072388;28;20862;-53
2021/03/18 07:13:21;;;;;;;18.10;12.30;;;5.20;1.00;;;;;;5070503;28;20475;-55
2021/03/18 07:15:51;;;;;;;15.87;11.63;;;5.10;1.00;;;;;;5082749;28;20446;-54
2021/03/18 07:18:17;;;;;;;17.93;12.20;;;5.30;1.00;;;;;;5076803;28;20436;-55
2021/03/18 07:21:13;;;;;;;22.03;13.47;;;5.20;1.00;;;;;;5084029;28;20442;-55
2021/03/18 07:23:47;;;;;;;17.97;12.90;;;5.10;1.00;;;;;;5081712;28;20460;-56
2021/03/18 07:26:19;;;;;;;23.10;12.60;;;5.20;1.00;;;;;;5088916;28;21074;-55
2021/03/18 07:28:50;;;;;;;16.17;11.83;;;5.20;1.00;;;;;;5073260;28;20791;-55
2021/03/18 07:31:17;;;;;;;15.30;10.40;;;4.90;1.00;;;;;;5073734;28;20436;-53
2021/03/18 07:33:44;;;;;;;20.97;12.43;;;4.80;1.00;;;;;;5077484;28;20464;-55
2021/03/18 07:36:12;;;;;;;17.83;11.87;;;4.90;1.00;;;;;;5085340;28;20432;-55
2021/03/18 07:38:38;;;;;;;21.87;12.60;;;5.00;1.00;;;;;;5078925;28;20425;-56
2021/03/18 07:41:10;;;;;;;16.17;11.30;;;5.00;1.00;;;;;;5074609;28;20440;-56
2021/03/18 07:43:36;;;;;;;18.00;11.20;;;5.00;1.00;;;;;;5072762;28;20480;-57
2021/03/18 07:46:02;;;;;;;16.23;11.47;;;5.00;1.00;;;;;;5073159;28;20438;-55
2021/03/18 07:48:30;;;;;;;17.43;11.03;;;5.20;1.00;;;;;;5078407;28;20442;-55
2021/03/18 07:50:58;;;;;;;15.40;11.47;;;5.40;1.00;;;;;;5081281;28;20429;-55
2021/03/18 07:53:24;;;;;;;17.77;11.40;;;5.40;1.00;;;;;;5072605;28;20980;-55
2021/03/18 07:55:51;;;;;;;16.33;9.43;;;5.40;1.00;;;;;;5090480;28;20794;-55
2021/03/18 07:58:37;;;;;;;16.10;10.33;;;5.30;1.00;;;;;;5079441;28;20520;-55
2021/03/18 08:01:03;;;;;;;14.17;9.67;;;5.30;1.00;;;;;;5076883;28;20479;-55
2021/03/18 08:03:29;;;;;;;15.67;11.50;;;5.30;1.00;;;;;;5071911;28;20954;-55
2021/03/18 08:05:56;;;;;;;18.03;11.13;;;5.50;1.00;;;;;;5072878;28;21072;-56
2021/03/18 08:08:30;;;;;;;15.73;11.70;;;5.50;1.00;;;;;;5073353;28;20459;-55
2021/03/18 08:11:11;;;;;;;19.20;11.70;;;5.80;1.00;;;;;;5072198;28;20498;-55
2021/03/18 08:13:39;;;;;;;18.77;11.17;;;6.20;1.00;;;;;;5072786;28;20556;-55
2021/03/18 08:16:07;;;;;;;15.10;11.10;;;6.20;1.00;;;;;;5072787;28;20429;-55
2021/03/18 08:18:35;;;;;;;18.43;11.17;;;6.10;1.00;;;;;;5085013;28;20436;-55
2021/03/18 08:21:04;;;;;;;18.07;12.57;;;6.20;1.00;;;;;;5077302;28;20445;-55
2021/03/18 08:23:30;;;;;;;14.63;10.93;;;6.20;1.00;;;;;;5070773;28;21067;-54
2021/03/18 08:26:32;;;;;;;14.00;11.00;;;6.40;1.00;;;;;;5073032;28;20429;-55
2021/03/18 08:29:00;;;;;;;15.60;10.70;;;6.60;1.00;;;;;;5072121;28;20183;-54
2021/03/18 08:31:31;;;;;;;12.83;10.10;;;6.60;1.00;;;;;;5080412;28;20442;-53
2021/03/18 08:33:58;;;;;;;13.20;10.43;;;6.30;1.00;;;;;;5071748;28;20537;-55
2021/03/18 08:36:37;;;;;;;12.33;9.67;;;6.10;1.00;;;;;;5083172;28;20490;-54
2021/03/18 08:39:08;;;;;;;12.70;9.87;;;6.20;1.00;;;;;;5092764;28;20423;-54
2021/03/18 08:41:45;;;;;;;12.30;9.20;;;6.40;1.00;;;;;;5089593;28;20541;-55
2021/03/18 08:44:25;;;;;;;17.53;9.63;;;6.30;1.00;;;;;;5070710;28;20456;-57
2021/03/18 08:46:55;;;;;;;13.70;10.70;;;6.30;1.00;;;;;;5072053;28;20479;-55
2021/03/18 08:49:24;;;;;;;13.53;11.03;;;6.50;1.00;;;;;;5069972;28;20437;-57
2021/03/18 08:51:51;;;;;;;15.10;10.00;;;6.70;1.00;;;;;;5071133;28;20438;-55
2021/03/18 08:54:36;;;;;;;14.70;10.43;;;6.90;1.00;;;;;;5072235;28;20453;-55
2021/03/18 08:57:03;;;;;;;16.10;10.67;;;7.10;1.00;;;;;;5070552;28;20487;-55
2021/03/18 08:59:28;;;;;;;12.97;9.40;;;7.30;1.00;;;;;;5072868;28;20520;-56
2021/03/18 09:02:11;;;;;;;15.87;11.80;;;7.00;1.00;;;;;;5070565;28;20474;-56
2021/03/18 09:04:45;;;;;;;17.10;11.27;;;6.70;1.00;;;;;;5082268;28;20183;-56
2021/03/18 09:07:30;;;;;;;16.90;12.53;;;6.40;1.00;;;;;;5077606;28;20791;-55
2021/03/18 09:10:11;;;;;;;19.23;13.87;;;5.90;1.00;;;;;;5071562;28;20441;-55
2021/03/18 09:12:43;;;;;;;17.90;13.70;;;6.30;1.00;;;;;;5079867;28;22168;-54
2021/03/18 09:15:39;;;;;;;21.90;16.40;;;6.40;1.00;;;;;;5081975;28;20461;-55
2021/03/18 09:18:18;;;;;;;20.03;16.53;;;6.30;1.00;;;;;;5068428;28;20563;-54
2021/03/18 09:21:21;;;;;;;24.20;16.27;;;6.10;1.00;;;;;;5069853;28;20433;-55
2021/03/18 09:23:47;;;;;;;22.00;15.80;;;6.10;1.00;;;;;;5064452;28;20461;-56
2021/03/18 09:26:15;;;;;;;25.47;18.70;;;6.30;1.00;;;;;;5071745;28;20400;-55
2021/03/18 09:28:47;;;;;;;25.57;17.37;;;6.50;1.00;;;;;;5079795;28;20193;-55
2021/03/18 09:31:13;;;;;;;25.63;18.93;;;10.30;1.00;;;;;;5065040;28;20469;-54
2021/03/18 09:33:41;;;;;;;28.50;19.97;;;6.60;1.00;;;;;;5082001;28;20542;-57
2021/03/18 09:36:20;;;;;;;29.73;23.07;;;6.80;1.00;;;;;;5070637;28;20434;-56
2021/03/18 09:39:07;;;;;;;26.27;18.20;;;6.90;1.00;;;;;;5079648;28;21085;-56
2021/03/18 09:41:36;;;;;;;24.77;19.07;;;7.00;1.00;;;;;;5085973;28;20493;-56
2021/03/18 09:44:13;;;;;;;28.57;20.20;;;6.90;1.00;;;;;;5073574;28;20430;-56
2021/03/18 09:46:41;;;;;;;23.73;19.77;;;6.80;1.00;;;;;;5091504;28;20432;-55
2021/03/18 09:49:07;;;;;;;22.30;17.73;;;6.70;1.00;;;;;;5089763;28;20443;-55
2021/03/18 09:51:42;;;;;;;20.57;15.80;;;7.00;1.00;;;;;;5071501;28;20446;-55
2021/03/18 09:54:10;;;;;;;22.23;17.03;;;7.20;1.00;;;;;;5085694;28;20206;-56
2021/03/18 09:56:45;;;;;;;23.53;17.30;;;7.40;1.00;;;;;;5077046;28;20481;-55
2021/03/18 09:59:11;;;;;;;21.13;17.03;;;7.40;1.00;;;;;;5074923;28;20430;-56
2021/03/18 10:01:37;;;;;;;19.37;15.63;;;7.70;1.00;;;;;;5071005;28;20468;-55
2021/03/18 10:04:05;;;;;;;19.50;15.50;;;7.90;1.00;;;;;;5069656;28;20465;-55
2021/03/18 10:06:32;;;;;;;19.70;15.53;;;7.90;1.00;;;;;;5067684;28;20937;-55
2021/03/18 10:09:27;;;;;;;15.57;13.20;;;7.80;1.00;;;;;;5074026;28;20452;-54
2021/03/18 10:11:58;;;;;;;14.10;11.93;;;7.70;1.00;;;;;;5071100;28;20954;-56
2021/03/18 10:14:29;;;;;;;12.93;11.63;;;7.50;1.00;;;;;;5069495;28;20796;-57
2021/03/18 10:16:55;;;;;;;13.93;11.60;;;7.60;1.00;;;;;;5086145;28;20428;-54
2021/03/18 10:19:26;;;;;;;11.83;10.30;;;7.90;1.00;;;;;;5073940;28;20433;-54
2021/03/18 10:21:52;;;;;;;12.73;11.00;;;8.60;1.00;;;;;;5071229;28;20437;-56
2021/03/18 10:24:18;;;;;;;17.97;12.67;;;9.00;1.00;;;;;;5070619;28;21016;-57
2021/03/18 10:26:44;;;;;;;14.00;10.43;;;9.20;1.00;;;;;;5085313;28;20517;-56
2021/03/18 10:29:11;;;;;;;10.60;9.63;;;9.40;1.00;;;;;;5078983;28;20270;-55
2021/03/18 10:31:38;;;;;;;12.87;10.90;;;9.70;1.00;;;;;;5086368;28;20440;-55
2021/03/18 10:34:05;;;;;;;12.50;11.20;;;10.30;1.00;;;;;;5082942;28;20469;-56
2021/03/18 10:36:40;;;;;;;10.30;9.30;;;10.30;1.00;;;;;;5072280;28;20430;-55
2021/03/18 10:39:10;;;;;;;13.77;9.23;;;10.40;1.00;;;;;;5070721;28;20464;-55
2021/03/18 10:41:55;;;;;;;8.97;8.17;;;11.10;1.00;;;;;;5068771;28;20792;-56
2021/03/18 10:44:22;;;;;;;9.80;8.80;;;11.90;1.00;;;;;;5072106;28;20447;-57
2021/03/18 10:46:48;;;;;;;10.10;8.17;;;11.80;1.00;;;;;;5070424;28;20445;-56
2021/03/18 10:49:15;;;;;;;7.90;7.20;;;11.80;1.00;;;;;;5074593;28;20504;-57
2021/03/18 10:51:51;;;;;;;7.40;6.73;;;11.50;1.00;;;;;;5078736;28;20456;-57
2021/03/18 10:54:26;;;;;;;7.50;6.03;;;11.00;1.00;;;;;;5071895;28;20496;-56
2021/03/18 10:56:52;;;;;;;7.23;6.50;;;9.30;1.00;;;;;;5073322;28;20433;-56
2021/03/18 10:59:21;;;;;;;8.60;6.80;;;8.60;1.00;;;;;;5072929;28;20437;-54
2021/03/18 11:01:48;;;;;;;8.07;6.70;;;7.80;1.00;;;;;;5073829;28;20441;-56
2021/03/18 11:04:15;;;;;;;6.63;6.03;;;7.40;1.00;;;;;;5073771;28;20439;-55
2021/03/18 11:06:51;;;;;;;9.20;5.73;;;7.00;1.00;;;;;;5073539;28;20802;-56
2021/03/18 11:09:18;;;;;;;6.97;6.37;;;6.70;1.00;;;;;;5071985;28;20490;-56
2021/03/18 11:11:55;;;;;;;9.97;6.80;;;6.40;1.00;;;;;;5072324;28;20502;-57
2021/03/18 11:14:20;;;;;;;7.40;6.33;;;6.40;1.00;;;;;;5089636;28;20555;-56
2021/03/18 11:16:46;;;;;;;12.60;7.37;;;6.60;1.00;;;;;;5075401;28;20512;-56
2021/03/18 11:19:20;;;;;;;8.60;7.27;;;6.60;1.00;;;;;;5072841;28;20856;-56
2021/03/18 11:21:46;;;;;;;8.30;7.27;;;;;;;;;;5074876;28;20197;-57
2021/03/18 11:24:21;;;;;;;10.23;8.93;;;7.00;1.00;;;;;;5092373;28;20848;-58
2021/03/18 11:26:50;;;;;;;10.17;9.10;;;7.20;1.00;;;;;;5074787;28;20524;-56
2021/03/18 11:29:17;;;;;;;8.30;7.30;;;7.60;1.00;;;;;;5078650;28;20480;-57
2021/03/18 11:31:45;;;;;;;9.00;7.30;;;7.60;1.00;;;;;;5072465;28;20434;-54
2021/03/18 11:34:13;;;;;;;7.90;7.10;;;8.00;1.00;;;;;;5073338;28;20863;-56
2021/03/18 11:36:40;;;;;;;11.00;6.40;;;8.20;1.00;;;;;;5073544;28;20802;-56
2021/03/18 11:39:06;;;;;;;8.20;6.00;;;8.30;1.00;;;;;;5092542;28;20527;-56
2021/03/18 11:41:32;;;;;;;6.57;5.50;;;8.40;1.00;;;;;;5078006;28;20529;-60
2021/03/18 11:43:58;;;;;;;7.10;6.40;;;8.70;1.00;;;;;;5085874;28;20186;-57
2021/03/18 11:46:24;;;;;;;8.03;6.37;;;8.70;1.00;;;;;;5073829;28;20457;-55
2021/03/18 11:48:49;;;;;;;6.83;6.17;;;9.00;1.00;;;;;;5072740;28;20447;-57
2021/03/18 11:51:15;;;;;;;7.63;6.60;;;9.60;1.00;;;;;;5079655;28;20195;-56
2021/03/18 11:53:41;;;;;;;5.70;4.70;;;10.00;1.00;;;;;;5074528;28;20219;-56
2021/03/18 11:56:06;;;;;;;7.00;5.17;;;10.30;1.00;;;;;;5087277;28;20266;-56
2021/03/18 11:58:32;;;;;;;7.43;4.80;;;9.80;1.00;;;;;;5073212;28;20190;-56
2021/03/18 12:00:57;;;;;;;6.23;5.10;;;9.70;1.00;;;;;;5072873;28;20506;-57
2021/03/18 12:03:23;;;;;;;4.73;4.17;;;9.70;1.00;;;;;;5072609;28;20203;-56
2021/03/18 12:05:49;;;;;;;4.30;3.50;;;9.40;1.00;;;;;;5089743;28;20248;-55
2021/03/18 12:08:14;;;;;;;4.20;2.83;;;8.90;1.00;;;;;;5076086;28;20707;-56
2021/03/18 12:10:40;;;;;;;2.43;2.23;;;8.90;1.00;;;;;;5073233;28;20179;-56
2021/03/18 12:13:06;;;;;;;2.47;2.27;;;9.10;1.00;;;;;;5071633;28;20207;-55
2021/03/18 12:15:32;;;;;;;2.70;2.30;;;11.60;1.00;;;;;;5073028;28;20587;-55
2021/03/18 12:17:58;;;;;;;2.90;2.47;;;8.30;1.00;;;;;;5072725;28;20532;-56
2021/03/18 12:20:26;;;;;;;2.13;1.93;;;8.30;1.00;;;;;;5072423;28;20433;-56
2021/03/18 12:22:52;;;;;;;2.93;2.27;;;8.70;1.00;;;;;;5070517;28;20179;-56
2021/03/18 12:25:20;;;;;;;3.00;2.50;;;9.20;1.00;;;;;;5071919;28;20461;-56
2021/03/18 12:27:46;;;;;;;3.30;2.80;;;9.20;1.00;;;;;;5084547;28;20198;-55
2021/03/18 12:30:14;;;;;;;3.23;2.93;;;9.10;1.00;;;;;;5053323;28;20456;-55
2021/03/18 12:32:41;;;;;;;2.93;2.70;;;9.40;1.00;;;;;;5071889;28;20468;-57
2021/03/18 12:35:08;;;;;;;3.77;3.47;;;9.70;1.00;;;;;;5068212;28;21473;-56
2021/03/18 12:37:34;;;;;;;4.20;3.37;;;10.00;1.00;;;;;;5067495;28;20437;-54
2021/03/18 12:40:00;;;;;;;4.33;3.20;;;10.10;1.00;;;;;;5068768;28;20587;-55
2021/03/18 12:42:26;;;;;;;5.90;4.33;;;10.10;1.00;;;;;;5071255;28;20437;-62
2021/03/18 12:44:53;;;;;;;7.10;4.23;;;10.40;1.00;;;;;;5071443;28;20444;-58
2021/03/18 12:47:19;;;;;;;4.83;3.70;;;;;;;;;;5071767;28;20922;-57
2021/03/18 12:49:45;;;;;;;4.97;3.70;;;10.40;1.00;;;;;;5074804;28;20545;-57
2021/03/18 12:52:10;;;;;;;5.57;3.43;;;10.20;1.00;;;;;;5071589;28;20544;-55
2021/03/18 12:54:36;;;;;;;6.63;4.40;;;9.90;1.00;;;;;;5070703;28;20249;-57
2021/03/18 12:57:02;;;;;;;7.27;4.30;;;9.50;1.00;;;;;;5071847;28;20192;-56
2021/03/18 12:59:28;;;;;;;6.67;4.90;;;9.00;1.00;;;;;;5071285;28;20549;-57